createdAt,value
2023-10-18T00:01:05.833Z,9.51
2023-10-18T00:03:34.337Z,9.50
2023-10-18T00:06:13.635Z,9.43
2023-10-18T00:08:40.953Z,9.47
2023-10-18T00:11:08.133Z,9.44
2023-10-18T00:13:35.322Z,9.46
2023-10-18T00:16:04.924Z,9.45
2023-10-18T00:18:36.169Z,9.42
2023-10-18T00:21:07.132Z,9.43
2023-10-18T00:23:35.265Z,9.39
2023-10-18T00:26:06.627Z,9.43
2023-10-18T00:28:38.188Z,9.43
2023-10-18T00:31:18.765Z,9.40
2023-10-18T00:33:46.681Z,9.40
2023-10-18T00:36:18.212Z,9.14
2023-10-18T00:38:46.802Z,9.38
2023-10-18T00:41:23.632Z,9.35
2023-10-18T00:43:54.427Z,9.33
2023-10-18T00:46:22.401Z,9.32
2023-10-18T00:48:50.053Z,9.32
2023-10-18T00:51:19.168Z,9.31
2023-10-18T00:53:48.033Z,9.29
2023-10-18T00:56:17.092Z,9.27
2023-10-18T00:58:46.131Z,9.20
2023-10-18T01:01:14.546Z,9.23
2023-10-18T01:03:49.014Z,9.27
2023-10-18T01:06:27.177Z,9.27
2023-10-18T01:09:03.136Z,9.25
2023-10-18T01:11:30.264Z,9.20
2023-10-18T01:14:01.008Z,9.18
2023-10-18T01:16:32.766Z,9.24
2023-10-18T01:19:00.425Z,9.17
2023-10-18T01:21:28.151Z,9.22
2023-10-18T01:24:01.058Z,9.20
2023-10-18T01:26:31.334Z,9.20
2023-10-18T01:29:04.837Z,9.18
2023-10-18T01:31:32.858Z,9.19
2023-10-18T01:34:00.327Z,9.19
2023-10-18T01:36:33.112Z,9.19
2023-10-18T01:39:00.900Z,9.15
2023-10-18T01:41:30.762Z,9.17
2023-10-18T01:44:06.310Z,9.17
2023-10-18T01:46:38.853Z,9.10
2023-10-18T01:49:07.608Z,9.12
2023-10-18T01:51:35.131Z,9.14
2023-10-18T01:54:13.835Z,9.09
2023-10-18T01:56:44.431Z,9.04
2023-10-18T01:59:20.331Z,9.08
2023-10-18T02:01:54.857Z,9.05
2023-10-18T02:04:48.791Z,9.03
2023-10-18T02:07:19.779Z,9.02
2023-10-18T02:09:51.724Z,9.01
2023-10-18T02:12:22.759Z,8.98
2023-10-18T02:14:51.102Z,8.95
2023-10-18T02:17:20.094Z,8.95
2023-10-18T02:19:47.654Z,8.92
2023-10-18T02:22:17.490Z,8.89
2023-10-18T02:24:45.351Z,8.86
2023-10-18T02:27:21.138Z,8.78
2023-10-18T02:29:48.749Z,8.79
2023-10-18T02:32:33.121Z,8.77
2023-10-18T02:35:00.539Z,8.74
2023-10-18T02:37:27.966Z,8.69
2023-10-18T02:40:08.722Z,8.71
2023-10-18T02:42:56.718Z,8.65
2023-10-18T02:45:23.827Z,8.69
2023-10-18T02:47:54.095Z,8.64
2023-10-18T02:50:21.781Z,8.66
2023-10-18T02:52:48.891Z,8.64
2023-10-18T02:55:20.257Z,8.52
2023-10-18T02:57:50.847Z,8.62
2023-10-18T03:00:18.920Z,8.61
2023-10-18T03:02:46.222Z,8.57
2023-10-18T03:05:13.522Z,8.60
2023-10-18T03:07:42.752Z,8.58
2023-10-18T03:10:12.990Z,8.57
2023-10-18T03:12:45.716Z,8.52
2023-10-18T03:15:18.692Z,8.44
2023-10-18T03:17:50.204Z,8.52
2023-10-18T03:20:24.868Z,8.52
2023-10-18T03:22:53.497Z,8.52
2023-10-18T03:25:31.852Z,8.51
2023-10-18T03:27:59.843Z,8.50
2023-10-18T03:30:46.220Z,8.49
2023-10-18T03:33:14.218Z,8.47
2023-10-18T03:35:41.539Z,8.44
2023-10-18T03:38:18.415Z,8.44
2023-10-18T03:40:58.596Z,8.40
2023-10-18T03:43:33.534Z,8.37
2023-10-18T03:46:29.715Z,8.32
2023-10-18T03:48:59.746Z,8.30
2023-10-18T03:51:26.929Z,8.26
2023-10-18T03:53:54.744Z,8.20
2023-10-18T03:56:24.775Z,8.24
2023-10-18T03:59:01.863Z,8.18
2023-10-18T04:01:29.998Z,8.20
2023-10-18T04:03:58.141Z,8.18
2023-10-18T04:06:29.722Z,8.16
2023-10-18T04:08:59.248Z,8.15
2023-10-18T04:11:29.256Z,8.14
2023-10-18T04:13:58.146Z,8.12
2023-10-18T04:16:31.729Z,8.10
2023-10-18T04:19:00.121Z,8.09
2023-10-18T04:21:27.601Z,8.01
2023-10-18T04:23:57.618Z,7.99
2023-10-18T04:26:28.049Z,8.04
2023-10-18T04:28:59.198Z,8.04
2023-10-18T04:31:26.591Z,8.03
2023-10-18T04:33:56.614Z,8.03
2023-10-18T04:36:24.779Z,7.99
2023-10-18T04:38:53.005Z,8.02
2023-10-18T04:41:27.768Z,7.98
2023-10-18T04:44:08.976Z,7.99
2023-10-18T04:46:39.822Z,7.97
2023-10-18T04:49:10.180Z,7.94
2023-10-18T04:51:37.634Z,7.91
2023-10-18T04:54:11.824Z,7.87
2023-10-18T04:56:40.308Z,7.88
2023-10-18T04:59:18.082Z,7.80
2023-10-18T05:01:56.742Z,7.83
2023-10-18T05:04:35.498Z,7.85
2023-10-18T05:07:12.429Z,7.83
2023-10-18T05:09:43.406Z,7.81
2023-10-18T05:12:22.877Z,7.80
2023-10-18T05:15:07.903Z,7.81
2023-10-18T05:17:40.381Z,7.74
2023-10-18T05:20:17.299Z,7.78
2023-10-18T05:22:46.406Z,7.78
2023-10-18T05:25:23.457Z,7.78
2023-10-18T05:28:02.147Z,7.76
2023-10-18T05:30:49.685Z,7.74
2023-10-18T05:33:31.355Z,7.71
2023-10-18T05:36:12.909Z,7.70
2023-10-18T05:39:02.844Z,7.71
2023-10-18T05:41:29.963Z,7.66
2023-10-18T05:44:01.787Z,7.70
2023-10-18T05:46:33.377Z,7.70
2023-10-18T05:49:02.172Z,7.71
2023-10-18T05:51:38.464Z,7.71
2023-10-18T05:54:07.082Z,7.72
2023-10-18T05:56:35.105Z,7.73
2023-10-18T05:59:28.927Z,7.75
2023-10-18T06:02:00.102Z,7.75
2023-10-18T06:04:39.173Z,7.78
2023-10-18T06:07:10.880Z,7.79
2023-10-18T06:09:48.679Z,7.80
2023-10-18T06:12:43.465Z,7.80
2023-10-18T06:15:17.574Z,7.84
2023-10-18T06:17:48.718Z,7.86
2023-10-18T06:20:29.541Z,7.89
2023-10-18T06:23:10.482Z,7.93
2023-10-18T06:25:45.645Z,7.95
2023-10-18T06:28:13.262Z,7.99
2023-10-18T06:30:40.713Z,8.00
2023-10-18T06:33:16.946Z,8.03
2023-10-18T06:35:46.374Z,8.08
2023-10-18T06:38:18.643Z,8.10
2023-10-18T06:41:06.267Z,8.14
2023-10-18T06:43:34.815Z,8.17
2023-10-18T06:46:02.082Z,8.23
2023-10-18T06:48:32.312Z,8.25
2023-10-18T06:51:00.658Z,8.25
2023-10-18T06:53:28.038Z,8.34
2023-10-18T06:56:03.652Z,8.36
2023-10-18T06:58:31.877Z,8.44
2023-10-18T07:01:31.634Z,8.49
2023-10-18T07:04:01.598Z,8.50
2023-10-18T07:06:36.702Z,8.53
2023-10-18T07:09:23.939Z,8.49
2023-10-18T07:11:52.451Z,8.59
2023-10-18T07:14:21.323Z,8.60
2023-10-18T07:16:55.698Z,8.68
2023-10-18T07:19:27.982Z,8.68
2023-10-18T07:22:02.006Z,8.70
2023-10-18T07:24:39.668Z,8.75
2023-10-18T07:27:10.506Z,8.85
2023-10-18T07:29:38.603Z,8.89
2023-10-18T07:32:14.516Z,8.91
2023-10-18T07:34:44.276Z,8.99
2023-10-18T07:37:18.999Z,9.04
2023-10-18T07:39:50.619Z,9.09
2023-10-18T07:42:20.242Z,9.13
2023-10-18T07:44:54.027Z,9.17
2023-10-18T07:47:21.570Z,9.20
2023-10-18T07:49:49.372Z,9.21
2023-10-18T07:52:16.926Z,9.24
2023-10-18T07:54:44.176Z,9.30
2023-10-18T07:57:16.333Z,9.36
2023-10-18T07:59:47.234Z,9.40
2023-10-18T08:02:21.133Z,9.50
2023-10-18T08:04:48.521Z,9.55
2023-10-18T08:07:16.939Z,9.62
2023-10-18T08:09:44.964Z,9.68
2023-10-18T08:12:31.696Z,9.75
2023-10-18T08:14:59.128Z,9.81
2023-10-18T08:17:46.110Z,9.88
2023-10-18T08:20:23.271Z,9.95
2023-10-18T08:22:52.208Z,10.01
2023-10-18T08:25:33.712Z,10.02
2023-10-18T08:28:03.317Z,10.15
2023-10-18T08:31:00.973Z,10.20
2023-10-18T08:33:28.320Z,10.21
2023-10-18T08:36:00.041Z,10.36
2023-10-18T08:38:30.871Z,10.43
2023-10-18T08:41:15.133Z,10.49
2023-10-18T08:43:59.687Z,10.57
2023-10-18T08:46:28.266Z,10.58
2023-10-18T08:48:59.802Z,10.69
2023-10-18T08:51:29.713Z,10.73
2023-10-18T08:54:02.103Z,10.84
2023-10-18T08:56:34.701Z,10.86
2023-10-18T08:59:12.458Z,10.96
2023-10-18T09:02:00.531Z,11.02
2023-10-18T09:04:32.765Z,11.05
2023-10-18T09:07:07.013Z,11.15
2023-10-18T09:09:37.402Z,11.22
2023-10-18T09:12:16.315Z,11.29
2023-10-18T09:14:51.954Z,11.35
2023-10-18T09:17:24.588Z,11.37
2023-10-18T09:19:56.815Z,11.43
2023-10-18T09:22:24.345Z,11.47
2023-10-18T09:24:52.048Z,11.47
2023-10-18T09:27:23.816Z,11.52
2023-10-18T09:29:53.366Z,11.58
2023-10-18T09:32:46.758Z,11.62
2023-10-18T09:35:24.307Z,11.69
2023-10-18T09:37:52.060Z,11.74
2023-10-18T09:40:20.044Z,11.80
2023-10-18T09:42:48.038Z,11.84
2023-10-18T09:45:15.600Z,11.91
2023-10-18T09:47:43.351Z,11.95
2023-10-18T09:50:24.139Z,12.02
2023-10-18T09:52:57.987Z,12.11
2023-10-18T09:55:29.893Z,12.21
2023-10-18T09:58:15.417Z,12.22
2023-10-18T10:00:43.842Z,12.33
2023-10-18T10:03:11.920Z,12.36
2023-10-18T10:05:44.339Z,12.41
2023-10-18T10:08:13.115Z,12.38
2023-10-18T10:10:47.046Z,12.43
2023-10-18T10:13:19.970Z,12.46
2023-10-18T10:15:56.961Z,12.49
2023-10-18T10:18:44.085Z,12.49
2023-10-18T10:21:17.225Z,12.57
2023-10-18T10:23:45.020Z,12.58
2023-10-18T10:26:28.873Z,12.59
2023-10-18T10:29:04.589Z,12.58
2023-10-18T10:32:00.240Z,12.58
2023-10-18T10:34:33.848Z,12.54
2023-10-18T10:37:16.828Z,12.59
2023-10-18T10:39:45.659Z,12.58
2023-10-18T10:42:43.082Z,12.58
2023-10-18T10:45:21.202Z,12.63
2023-10-18T10:47:51.770Z,12.62
2023-10-18T10:50:46.682Z,12.61
2023-10-18T10:53:32.282Z,12.65
2023-10-18T10:56:20.862Z,12.65
2023-10-18T10:59:25.826Z,12.66
2023-10-18T11:01:57.776Z,12.70
2023-10-18T11:04:29.625Z,12.69
2023-10-18T11:07:02.757Z,12.71
2023-10-18T11:09:35.604Z,12.72
2023-10-18T11:12:19.064Z,12.68
2023-10-18T11:14:51.401Z,12.74
2023-10-18T11:17:18.947Z,12.77
2023-10-18T11:19:55.900Z,12.77
2023-10-18T11:22:25.234Z,12.78
2023-10-18T11:24:56.667Z,12.79
2023-10-18T11:27:27.380Z,12.77
2023-10-18T11:30:12.566Z,12.83
2023-10-18T11:32:40.075Z,12.85
2023-10-18T11:35:19.556Z,12.86
2023-10-18T11:37:49.207Z,12.89
2023-10-18T11:40:17.542Z,12.91
2023-10-18T11:42:56.543Z,12.94
2023-10-18T11:45:29.828Z,12.95
2023-10-18T11:48:01.095Z,12.98
2023-10-18T11:50:49.787Z,13.03
2023-10-18T11:53:24.333Z,13.03
2023-10-18T11:56:10.026Z,13.05
2023-10-18T11:58:38.615Z,13.04
2023-10-18T12:01:20.665Z,13.10
2023-10-18T12:03:49.909Z,13.11
2023-10-18T12:06:22.219Z,13.09
2023-10-18T12:09:09.597Z,13.14
2023-10-18T12:11:38.641Z,13.15
2023-10-18T12:14:06.381Z,13.21
2023-10-18T12:16:34.644Z,13.24
2023-10-18T12:19:01.960Z,13.31
2023-10-18T12:21:32.173Z,13.31
2023-10-18T12:23:59.512Z,13.38
2023-10-18T12:26:26.661Z,13.36
2023-10-18T12:28:56.389Z,13.39
2023-10-18T12:31:29.851Z,13.35
2023-10-18T12:34:01.438Z,13.37
2023-10-18T12:36:34.524Z,13.39
2023-10-18T12:39:02.186Z,13.36
2023-10-18T12:41:33.196Z,13.44
2023-10-18T12:44:00.963Z,13.47
2023-10-18T12:46:28.167Z,13.50
2023-10-18T12:48:57.605Z,13.50
2023-10-18T12:51:43.146Z,13.53
2023-10-18T12:54:20.928Z,13.50
2023-10-18T12:56:57.898Z,13.57
2023-10-18T12:59:25.828Z,13.63
2023-10-18T13:01:59.822Z,13.70
2023-10-18T13:04:28.399Z,13.75
2023-10-18T13:06:55.636Z,13.78
2023-10-18T13:09:23.391Z,13.71
2023-10-18T13:12:17.292Z,13.75
2023-10-18T13:14:45.533Z,13.77
2023-10-18T13:17:14.242Z,13.75
2023-10-18T13:19:45.304Z,13.73
2023-10-18T13:22:19.093Z,13.73
2023-10-18T13:24:47.425Z,13.66
2023-10-18T13:27:21.986Z,13.67
2023-10-18T13:30:02.023Z,13.62
2023-10-18T13:32:29.990Z,13.64
2023-10-18T13:34:57.529Z,13.63
2023-10-18T13:37:25.370Z,13.61
2023-10-18T13:39:54.252Z,13.52
2023-10-18T13:42:23.003Z,13.51
2023-10-18T13:44:50.915Z,13.49
2023-10-18T13:47:19.853Z,13.46
2023-10-18T13:49:47.331Z,13.47
2023-10-18T13:52:14.917Z,13.44
2023-10-18T13:54:42.703Z,13.36
2023-10-18T13:57:10.118Z,13.42
2023-10-18T13:59:39.476Z,13.32
2023-10-18T14:02:07.753Z,13.33
2023-10-18T14:04:36.418Z,13.25
2023-10-18T14:07:06.600Z,13.26
2023-10-18T14:09:35.688Z,13.19
2023-10-18T14:12:05.120Z,13.18
2023-10-18T14:14:34.356Z,13.18
2023-10-18T14:17:02.215Z,13.14
2023-10-18T14:19:31.222Z,13.08
2023-10-18T14:21:59.020Z,13.09
2023-10-18T14:24:26.644Z,13.06
2023-10-18T14:26:54.118Z,13.04
2023-10-18T14:29:24.644Z,12.98
2023-10-18T14:31:51.831Z,13.00
2023-10-18T14:34:19.113Z,12.97
2023-10-18T14:36:51.460Z,12.96
2023-10-18T14:39:35.651Z,12.92
2023-10-18T14:42:08.346Z,12.90
2023-10-18T14:44:35.936Z,12.87
2023-10-18T14:47:03.642Z,12.84
2023-10-18T14:49:33.488Z,12.82
2023-10-18T14:52:00.889Z,12.78
2023-10-18T14:54:28.194Z,12.80
2023-10-18T14:56:57.010Z,12.75
2023-10-18T14:59:25.099Z,12.75
2023-10-18T15:01:56.067Z,12.74
2023-10-18T15:04:25.642Z,12.73
2023-10-18T15:06:55.027Z,12.71
2023-10-18T15:09:22.588Z,12.68
2023-10-18T15:11:50.631Z,12.66
2023-10-18T15:14:19.577Z,12.65
2023-10-18T15:16:47.893Z,12.61
2023-10-18T15:19:16.197Z,12.59
2023-10-18T15:21:47.213Z,12.56
2023-10-18T15:24:14.671Z,12.53
2023-10-18T15:26:41.743Z,12.49
2023-10-18T15:29:13.305Z,12.44
2023-10-18T15:31:40.523Z,12.43
2023-10-18T15:34:07.730Z,12.40
2023-10-18T15:36:34.897Z,12.37
2023-10-18T15:39:02.915Z,12.34
2023-10-18T15:41:30.118Z,12.31
2023-10-18T15:44:01.715Z,12.27
2023-10-18T15:46:34.283Z,12.23
2023-10-18T15:49:02.619Z,12.19
2023-10-18T15:51:31.710Z,12.15
2023-10-18T15:54:00.977Z,12.11
2023-10-18T15:56:29.870Z,12.02
2023-10-18T15:58:59.782Z,12.03
2023-10-18T16:01:29.424Z,12.01
2023-10-18T16:03:59.738Z,11.92
2023-10-18T16:06:27.134Z,11.93
2023-10-18T16:08:54.761Z,11.89
2023-10-18T16:11:25.717Z,11.84
2023-10-18T16:13:57.307Z,11.80
2023-10-18T16:16:27.028Z,11.74
2023-10-18T16:18:57.792Z,11.71
2023-10-18T16:21:25.938Z,11.66
2023-10-18T16:23:53.665Z,11.61
2023-10-18T16:26:24.739Z,11.58
2023-10-18T16:28:53.131Z,11.54
2023-10-18T16:31:22.839Z,11.47
2023-10-18T16:33:50.370Z,11.55
2023-10-18T16:36:21.124Z,11.56
2023-10-18T16:38:52.244Z,11.52
2023-10-18T16:41:19.619Z,11.45
2023-10-18T16:43:48.349Z,11.38
2023-10-18T16:46:16.773Z,11.35
2023-10-18T16:48:45.670Z,11.32
2023-10-18T16:51:13.032Z,11.29
2023-10-18T16:53:42.950Z,11.25
2023-10-18T16:56:12.488Z,11.15
2023-10-18T16:58:40.125Z,11.18
2023-10-18T17:01:13.784Z,11.13
2023-10-18T17:03:45.908Z,11.11
2023-10-18T17:06:15.028Z,11.07
2023-10-18T17:08:44.490Z,11.04
2023-10-18T17:11:14.611Z,11.00
2023-10-18T17:13:44.463Z,10.97
2023-10-18T17:16:14.201Z,10.95
2023-10-18T17:18:43.807Z,10.92
2023-10-18T17:21:19.892Z,10.90
2023-10-18T17:23:52.468Z,10.85
2023-10-18T17:26:19.693Z,10.87
2023-10-18T17:28:47.917Z,10.84
2023-10-18T17:31:21.339Z,10.82
2023-10-18T17:33:48.735Z,10.80
2023-10-18T17:36:19.558Z,10.77
2023-10-18T17:38:47.935Z,10.74
2023-10-18T17:41:15.721Z,10.72
2023-10-18T17:43:43.000Z,10.69
2023-10-18T17:46:10.495Z,10.65
2023-10-18T17:48:37.798Z,10.66
2023-10-18T17:51:12.852Z,10.62
2023-10-18T17:53:40.390Z,10.61
2023-10-18T17:56:08.109Z,10.56
2023-10-18T17:58:38.745Z,10.51
2023-10-18T18:01:06.574Z,10.54
2023-10-18T18:03:34.156Z,10.51
2023-10-18T18:06:08.669Z,10.48
2023-10-18T18:08:37.189Z,10.46
2023-10-18T18:11:04.848Z,10.37
2023-10-18T18:13:35.588Z,10.38
2023-10-18T18:16:06.827Z,10.38
2023-10-18T18:18:34.456Z,10.35
2023-10-18T18:21:02.837Z,10.33
2023-10-18T18:23:30.304Z,10.31
2023-10-18T18:26:14.317Z,10.28
2023-10-18T18:28:42.443Z,10.27
2023-10-18T18:31:10.439Z,10.22
2023-10-18T18:33:37.737Z,10.26
2023-10-18T18:36:05.383Z,10.23
2023-10-18T18:38:32.483Z,10.21
2023-10-18T18:40:59.590Z,10.21
2023-10-18T18:43:28.838Z,10.18
2023-10-18T18:46:00.266Z,10.18
2023-10-18T18:48:27.606Z,10.18
2023-10-18T18:50:55.992Z,10.14
2023-10-18T18:53:23.394Z,10.16
2023-10-18T18:55:50.548Z,10.16
2023-10-18T18:58:17.651Z,10.16
2023-10-18T19:00:44.775Z,10.09
2023-10-18T19:03:12.112Z,10.15
2023-10-18T19:05:39.960Z,10.13
2023-10-18T19:08:08.396Z,10.12
2023-10-18T19:10:36.572Z,10.10
2023-10-18T19:13:03.820Z,10.11
2023-10-18T19:15:30.908Z,10.00
2023-10-18T19:17:58.085Z,10.08
2023-10-18T19:20:27.828Z,10.07
2023-10-18T19:22:57.377Z,10.00
2023-10-18T19:25:24.804Z,9.97
2023-10-18T19:27:51.951Z,10.04
2023-10-18T19:30:20.763Z,10.02
2023-10-18T19:32:48.014Z,10.03
2023-10-18T19:35:16.240Z,10.03
2023-10-18T19:37:43.545Z,9.98
2023-10-18T19:40:13.763Z,10.00
2023-10-18T19:42:42.469Z,10.01
2023-10-18T19:45:12.265Z,9.95
2023-10-18T19:47:39.593Z,9.92
2023-10-18T19:50:07.920Z,9.96
2023-10-18T19:52:35.478Z,9.95
2023-10-18T19:55:05.386Z,9.89
2023-10-18T19:57:34.386Z,9.92
2023-10-18T20:00:01.817Z,9.92
2023-10-18T20:02:29.023Z,9.92
2023-10-18T20:04:57.135Z,9.85
2023-10-18T20:07:24.952Z,9.87
2023-10-18T20:09:54.181Z,9.87
2023-10-18T20:12:22.881Z,9.86
2023-10-18T20:14:50.592Z,9.86
2023-10-18T20:17:17.751Z,9.80
2023-10-18T20:19:45.989Z,9.82
2023-10-18T20:22:13.203Z,9.80
2023-10-18T20:24:40.511Z,9.80
2023-10-18T20:27:08.189Z,9.76
2023-10-18T20:29:35.418Z,9.73
2023-10-18T20:32:04.005Z,9.73
2023-10-18T20:34:35.304Z,9.71
2023-10-18T20:37:02.980Z,9.69
2023-10-18T20:39:40.137Z,9.68
2023-10-18T20:42:11.814Z,9.66
2023-10-18T20:44:41.833Z,9.65
2023-10-18T20:47:10.864Z,9.64
2023-10-18T20:49:41.298Z,9.56
2023-10-18T20:52:08.359Z,9.61
2023-10-18T20:54:38.396Z,9.59
2023-10-18T20:57:12.703Z,9.58
2023-10-18T20:59:46.471Z,9.53
2023-10-18T21:02:18.597Z,9.56
2023-10-18T21:04:46.396Z,9.56
2023-10-18T21:07:16.918Z,9.56
2023-10-18T21:09:44.937Z,9.49
2023-10-18T21:12:17.459Z,9.53
2023-10-18T21:14:47.769Z,9.51
2023-10-18T21:17:15.867Z,9.51
2023-10-18T21:19:44.453Z,9.47
2023-10-18T21:22:11.733Z,9.52
2023-10-18T21:24:38.884Z,9.51
2023-10-18T21:27:05.943Z,9.51
2023-10-18T21:29:32.999Z,9.51
2023-10-18T21:32:00.338Z,9.50
2023-10-18T21:34:27.744Z,9.45
2023-10-18T21:36:55.575Z,9.48
2023-10-18T21:39:25.937Z,9.47
2023-10-18T21:41:53.025Z,9.47
2023-10-18T21:44:20.108Z,9.47
2023-10-18T21:46:47.296Z,9.46
2023-10-18T21:49:14.394Z,9.40
2023-10-18T21:51:41.596Z,9.44
2023-10-18T21:54:08.689Z,9.47
2023-10-18T21:56:35.887Z,9.46
2023-10-18T21:59:03.122Z,9.46
2023-10-18T22:01:42.736Z,9.46
2023-10-18T22:04:10.616Z,9.43
2023-10-18T22:06:39.822Z,9.43
2023-10-18T22:09:16.948Z,9.43
2023-10-18T22:11:49.828Z,9.42
2023-10-18T22:14:20.552Z,9.44
2023-10-18T22:16:55.768Z,9.43
2023-10-18T22:19:31.488Z,9.43
2023-10-18T22:21:59.133Z,9.42
2023-10-18T22:24:36.813Z,9.42
2023-10-18T22:27:06.761Z,9.38
2023-10-18T22:29:35.778Z,9.39
2023-10-18T22:34:33.180Z,9.37
2023-10-18T22:37:00.456Z,9.37
2023-10-18T22:39:35.300Z,9.36
2023-10-18T22:42:09.714Z,8.91
2023-10-18T22:44:40.098Z,9.35
2023-10-18T22:47:21.376Z,9.36
2023-10-18T22:49:49.806Z,9.34
2023-10-18T22:52:39.424Z,9.34
2023-10-18T22:55:30.471Z,9.33
2023-10-18T22:57:57.562Z,9.31
2023-10-18T23:00:33.121Z,9.31
2023-10-18T23:03:11.106Z,9.31
2023-10-18T23:05:41.584Z,9.30
2023-10-18T23:08:35.723Z,9.30
2023-10-18T23:13:48.846Z,9.25
2023-10-18T23:16:37.235Z,9.28
2023-10-18T23:19:11.534Z,9.29
2023-10-18T23:21:46.471Z,9.30
2023-10-18T23:24:16.178Z,9.30
2023-10-18T23:27:01.905Z,9.27
2023-10-18T23:29:40.976Z,9.30
2023-10-18T23:32:32.220Z,9.30
2023-10-18T23:35:18.272Z,9.28
2023-10-18T23:37:55.940Z,9.26
2023-10-18T23:40:42.581Z,9.24
2023-10-18T23:43:24.616Z,9.29
2023-10-18T23:45:58.238Z,9.27
2023-10-18T23:48:29.399Z,9.28
2023-10-18T23:51:10.919Z,9.28
2023-10-18T23:53:46.867Z,9.28
2023-10-18T23:56:15.800Z,9.28
2023-10-18T23:58:50.871Z,9.22
